Time;durP1;ratioP1;P1;durP2;ratioP2;P2;SDS_P1;SDS_P2;PMS_P1;PMS_P2;Temp;Humidity;BMP_temperature;BMP_pressure;BME280_temperature;BME280_humidity;BME280_pressure;Samples;Min_cycle;Max_cycle;Signal;HPM_P1;HPM_P2
2022/07/01 00:01:19;;;;;;;1.40;1.30;;;16.10;99.90;;;;;;4990068;28;20172;-66
2022/07/01 00:03:49;;;;;;;2.07;1.77;;;16.10;99.90;;;;;;4991351;28;20469;-66
2022/07/01 00:06:15;;;;;;;3.53;1.60;;;16.10;99.90;;;;;;4992093;28;20191;-65
2022/07/01 00:08:41;;;;;;;2.00;1.90;;;16.10;99.90;;;;;;4991364;28;20501;-66
2022/07/01 00:11:06;;;;;;;1.83;1.30;;;16.00;99.90;;;;;;4997891;28;20950;-65
2022/07/01 00:13:33;;;;;;;2.20;1.63;;;16.00;99.90;;;;;;4990791;28;20172;-65
2022/07/01 00:15:58;;;;;;;1.53;1.43;;;15.80;99.90;;;;;;4991654;28;20218;-66
2022/07/01 00:18:24;;;;;;;2.20;2.00;;;15.80;99.90;;;;;;4995337;28;21002;-65
2022/07/01 00:20:50;;;;;;;1.80;1.70;;;15.90;99.90;;;;;;4993870;28;20186;-66
2022/07/01 00:23:16;;;;;;;2.40;1.30;;;15.90;99.90;;;;;;4990350;28;20184;-67
2022/07/01 00:25:43;;;;;;;2.70;1.43;;;15.80;99.90;;;;;;4991311;28;20461;-66
2022/07/01 00:28:08;;;;;;;1.43;1.23;;;15.90;99.90;;;;;;4991244;28;20471;-65
2022/07/01 00:30:34;;;;;;;2.13;1.60;;;15.90;99.90;;;;;;4991602;28;20435;-66
2022/07/01 00:32:59;;;;;;;5.07;2.07;;;15.90;99.90;;;;;;4997791;28;20183;-66
2022/07/01 00:35:25;;;;;;;2.93;1.30;;;15.90;99.90;;;;;;4992136;28;20183;-66
2022/07/01 00:37:50;;;;;;;2.93;1.60;;;15.80;99.90;;;;;;5004522;28;20546;-65
2022/07/01 00:40:16;;;;;;;4.00;1.43;;;15.70;99.90;;;;;;4990922;28;20184;-65
2022/07/01 00:42:43;;;;;;;1.60;1.50;;;15.70;99.90;;;;;;4995480;28;20183;-66
2022/07/01 00:45:10;;;;;;;1.80;1.50;;;15.70;99.90;;;;;;4990694;28;20216;-66
2022/07/01 00:47:39;;;;;;;3.83;1.60;;;15.70;99.90;;;;;;4991565;28;20473;-67
2022/07/01 00:50:08;;;;;;;2.67;1.60;;;15.80;99.90;;;;;;4990337;28;20446;-66
2022/07/01 00:52:34;;;;;;;1.77;1.67;;;15.90;99.90;;;;;;4990657;28;20470;-65
2022/07/01 00:55:03;;;;;;;2.43;1.13;;;15.80;99.90;;;;;;4992230;28;20447;-66
2022/07/01 00:57:34;;;;;;;3.20;1.80;;;15.90;99.90;;;;;;4989802;28;20475;-66
2022/07/01 01:00:02;;;;;;;1.50;1.40;;;16.00;99.90;;;;;;4989303;28;20453;-66
2022/07/01 01:02:28;;;;;;;0.97;0.97;;;15.90;99.90;;;;;;4989535;28;20812;-66
2022/07/01 01:04:53;;;;;;;2.13;1.50;;;15.90;99.90;;;;;;4991107;28;20434;-66
2022/07/01 01:07:19;;;;;;;2.07;1.43;;;16.00;99.90;;;;;;4989298;28;20238;-67
2022/07/01 01:09:45;;;;;;;1.40;1.30;;;16.00;99.90;;;;;;4992552;28;20267;-67
2022/07/01 01:12:11;;;;;;;4.03;1.60;;;16.00;99.90;;;;;;4994923;28;20184;-66
2022/07/01 01:14:48;;;;;;;3.13;1.00;;;16.00;99.90;;;;;;4998030;28;20185;-66
2022/07/01 01:17:14;;;;;;;1.60;1.50;;;16.00;99.90;;;;;;4989192;28;21002;-66
2022/07/01 01:19:41;;;;;;;1.57;1.20;;;15.90;99.90;;;;;;4989497;28;20460;-66
2022/07/01 01:22:08;;;;;;;1.80;1.40;;;15.90;99.90;;;;;;4989981;28;20807;-66
2022/07/01 01:24:34;;;;;;;1.70;1.50;;;15.90;99.90;;;;;;4990739;28;20457;-67
2022/07/01 01:26:59;;;;;;;1.10;1.10;;;16.00;99.90;;;;;;4990402;28;20465;-67
2022/07/01 01:29:25;;;;;;;2.80;1.20;;;16.00;99.90;;;;;;4991879;28;20501;-67
2022/07/01 01:31:50;;;;;;;2.20;0.97;;;16.00;99.90;;;;;;4990274;28;20237;-67
2022/07/01 01:34:16;;;;;;;1.10;1.10;;;16.10;99.90;;;;;;4991509;28;20179;-66
2022/07/01 01:36:42;;;;;;;4.30;1.10;;;16.10;99.90;;;;;;4994553;28;20206;-66
2022/07/01 01:41:36;;;;;;;1.70;1.60;;;16.10;99.90;;;;;;4997760;28;20604;-67
2022/07/01 01:44:01;;;;;;;1.60;1.37;;;16.10;99.90;;;;;;4990196;28;20478;-66
2022/07/01 01:46:29;;;;;;;3.53;1.40;;;16.10;99.90;;;;;;4989405;28;20236;-66
2022/07/01 01:48:54;;;;;;;1.40;1.30;;;16.00;99.90;;;;;;4989266;28;20207;-66
2022/07/01 01:51:20;;;;;;;2.63;1.37;;;16.10;99.90;;;;;;4997761;28;20470;-66
2022/07/01 01:53:45;;;;;;;1.67;1.57;;;16.10;99.90;;;;;;4999263;28;20178;-66
2022/07/01 01:56:11;;;;;;;1.60;1.50;;;16.00;99.90;;;;;;4990794;28;20563;-66
2022/07/01 01:58:36;;;;;;;1.67;1.57;;;16.00;99.90;;;;;;4987943;28;20183;-66
2022/07/01 02:01:02;;;;;;;1.30;1.20;;;15.90;99.90;;;;;;4991711;28;20263;-66
2022/07/01 02:03:28;;;;;;;1.93;1.73;;;15.90;99.90;;;;;;4997438;28;20176;-66
2022/07/01 02:05:54;;;;;;;1.20;1.20;;;15.80;99.90;;;;;;4991431;28;20180;-66
2022/07/01 02:08:19;;;;;;;2.77;1.50;;;15.80;99.90;;;;;;4994113;28;20222;-66
2022/07/01 02:10:45;;;;;;;1.40;1.30;;;15.80;99.90;;;;;;4993265;28;20991;-67
2022/07/01 02:13:10;;;;;;;3.40;3.10;;;15.80;99.90;;;;;;4990467;28;20211;-66
2022/07/01 02:15:36;;;;;;;3.50;1.47;;;15.80;99.90;;;;;;4993007;28;20191;-66
2022/07/01 02:18:02;;;;;;;2.50;1.50;;;15.70;99.90;;;;;;4990831;28;20282;-67
2022/07/01 02:20:27;;;;;;;1.30;1.20;;;15.60;99.90;;;;;;4988661;28;20172;-66
2022/07/01 02:22:53;;;;;;;1.60;1.43;;;15.50;99.90;;;;;;4990174;28;20183;-66
2022/07/01 02:25:19;;;;;;;1.37;1.27;;;15.40;99.90;;;;;;4989129;28;20234;-67
2022/07/01 02:27:44;;;;;;;3.13;1.70;;;15.40;99.90;;;;;;4989552;28;20246;-66
2022/07/01 02:30:10;;;;;;;1.93;1.13;;;15.30;99.90;;;;;;4991060;28;20474;-67
2022/07/01 02:32:36;;;;;;;2.07;1.37;;;15.20;99.90;;;;;;4991219;28;20183;-66
2022/07/01 02:35:01;;;;;;;1.43;1.33;;;15.20;99.90;;;;;;4997240;28;20186;-66
2022/07/01 02:37:27;;;;;;;2.13;1.93;;;15.20;99.90;;;;;;4989772;28;20249;-66
2022/07/01 02:39:53;;;;;;;1.70;1.60;;;15.10;99.90;;;;;;4996606;28;20191;-66
2022/07/01 02:42:27;;;;;;;1.40;1.30;;;15.10;99.90;;;;;;4990221;28;20172;-66
2022/07/01 02:44:56;;;;;;;2.43;1.40;;;15.10;99.90;;;;;;4998908;28;20285;-66
2022/07/01 02:47:21;;;;;;;2.80;1.50;;;15.00;99.90;;;;;;4988783;28;21046;-66
2022/07/01 02:49:48;;;;;;;3.77;1.63;;;15.00;99.90;;;;;;4989752;28;20570;-66
2022/07/01 02:52:15;;;;;;;1.60;1.50;;;15.00;99.90;;;;;;4991947;28;20183;-66
2022/07/01 02:54:41;;;;;;;1.63;1.53;;;15.10;99.90;;;;;;4991476;28;20442;-66
2022/07/01 02:57:06;;;;;;;1.57;1.33;;;15.00;99.90;;;;;;4992053;28;20459;-66
2022/07/01 02:59:32;;;;;;;1.63;1.50;;;15.10;99.90;;;;;;4990882;28;20192;-66
2022/07/01 03:01:57;;;;;;;2.13;2.03;;;15.10;99.90;;;;;;4992437;28;20179;-66
2022/07/01 03:04:23;;;;;;;1.73;1.63;;;15.10;99.90;;;;;;4994337;28;20176;-66
2022/07/01 03:06:48;;;;;;;2.03;1.93;;;15.10;99.90;;;;;;4991663;28;20241;-66
2022/07/01 03:09:14;;;;;;;2.53;2.13;;;15.10;99.90;;;;;;4993308;28;20203;-66
2022/07/01 03:11:39;;;;;;;3.07;2.77;;;15.00;99.90;;;;;;4993688;28;20188;-66
2022/07/01 03:14:05;;;;;;;3.17;2.87;;;15.10;99.90;;;;;;4995982;28;20195;-66
2022/07/01 03:16:30;;;;;;;3.87;3.17;;;15.10;99.90;;;;;;4998547;28;20199;-66
2022/07/01 03:18:57;;;;;;;2.90;2.70;;;15.10;99.90;;;;;;4991405;28;20271;-66
2022/07/01 03:21:22;;;;;;;3.30;3.00;;;15.10;99.90;;;;;;4988837;28;20230;-66
2022/07/01 03:23:48;;;;;;;2.40;2.20;;;15.10;99.90;;;;;;4991347;28;20431;-66
2022/07/01 03:26:14;;;;;;;2.00;1.90;;;15.10;99.90;;;;;;4993979;28;20593;-66
2022/07/01 03:28:40;;;;;;;2.10;2.00;;;15.10;99.90;;;;;;4997311;28;20187;-67
2022/07/01 03:31:06;;;;;;;3.03;2.23;;;15.00;99.90;;;;;;4991204;28;20533;-66
2022/07/01 03:33:31;;;;;;;2.40;2.20;;;15.00;99.90;;;;;;4992754;28;20230;-66
2022/07/01 03:35:57;;;;;;;2.13;2.03;;;14.90;99.90;;;;;;4993733;28;20267;-66
2022/07/01 03:38:22;;;;;;;2.40;2.20;;;14.90;99.90;;;;;;4999349;28;20239;-66
2022/07/01 03:40:48;;;;;;;1.73;1.63;;;14.90;99.90;;;;;;4993483;28;20179;-66
2022/07/01 03:43:13;;;;;;;2.00;1.60;;;14.90;99.90;;;;;;4994664;28;20184;-66
2022/07/01 03:45:39;;;;;;;1.67;1.57;;;15.00;99.90;;;;;;4993273;28;20184;-66
2022/07/01 03:48:05;;;;;;;2.20;2.00;;;15.10;99.90;;;;;;4996836;28;20250;-66
2022/07/01 03:50:30;;;;;;;1.70;1.60;;;15.20;99.90;;;;;;4989361;28;20501;-66
2022/07/01 03:55:42;;;;;;;1.20;1.10;;;15.10;99.90;;;;;;4968075;28;20276;-66
2022/07/01 03:58:08;;;;;;;2.17;1.97;;;15.10;99.90;;;;;;4991814;28;21168;-66
2022/07/01 04:00:35;;;;;;;2.07;1.50;;;15.10;99.90;;;;;;4991565;28;20181;-66
2022/07/01 04:03:01;;;;;;;3.10;2.13;;;14.90;99.90;;;;;;4990273;28;20180;-66
2022/07/01 04:05:27;;;;;;;1.83;1.70;;;14.80;99.90;;;;;;4990934;28;20447;-66
2022/07/01 04:07:52;;;;;;;1.77;1.67;;;14.70;99.90;;;;;;4992461;28;20454;-67
2022/07/01 04:10:18;;;;;;;1.53;1.43;;;14.50;99.90;;;;;;4995638;28;20262;-66
2022/07/01 04:12:44;;;;;;;3.23;1.90;;;14.40;99.90;;;;;;4990832;28;20191;-66
2022/07/01 04:15:10;;;;;;;3.10;1.40;;;14.30;99.90;;;;;;4991997;28;20187;-66
2022/07/01 04:17:36;;;;;;;2.03;1.43;;;14.30;99.90;;;;;;4989656;28;20302;-66
2022/07/01 04:20:02;;;;;;;1.77;1.67;;;14.30;99.90;;;;;;4991176;28;20538;-66
2022/07/01 04:22:33;;;;;;;1.53;1.43;;;14.20;99.90;;;;;;4991978;28;20219;-66
2022/07/01 04:25:00;;;;;;;1.30;1.20;;;14.30;99.90;;;;;;4991788;28;20443;-67
2022/07/01 04:27:26;;;;;;;3.23;1.57;;;14.40;99.90;;;;;;4990291;28;20458;-67
2022/07/01 04:29:52;;;;;;;1.73;1.63;;;14.40;99.90;;;;;;4990268;28;21015;-67
2022/07/01 04:32:17;;;;;;;2.30;1.50;;;14.50;99.90;;;;;;4990293;28;20175;-67
2022/07/01 04:34:43;;;;;;;3.23;1.87;;;14.50;99.90;;;;;;4991553;28;20201;-67
2022/07/01 04:37:08;;;;;;;2.37;1.67;;;14.40;99.90;;;;;;4992079;28;20207;-67
2022/07/01 04:39:34;;;;;;;1.53;1.43;;;14.30;99.90;;;;;;4995246;28;20187;-67
2022/07/01 04:41:59;;;;;;;3.43;1.37;;;14.30;99.90;;;;;;4993900;28;20637;-66
2022/07/01 04:44:32;;;;;;;1.57;1.47;;;14.30;99.90;;;;;;4991973;28;20183;-67
2022/07/01 04:46:59;;;;;;;2.07;1.60;;;14.30;99.90;;;;;;4988852;28;20215;-66
2022/07/01 04:49:24;;;;;;;1.80;1.33;;;14.30;99.90;;;;;;4989381;28;20442;-67
2022/07/01 04:51:50;;;;;;;2.30;1.80;;;14.30;99.90;;;;;;4991002;28;20439;-67
2022/07/01 04:54:17;;;;;;;1.47;1.37;;;14.40;99.90;;;;;;4994090;28;20190;-67
2022/07/01 04:56:42;;;;;;;2.67;1.70;;;14.50;99.90;;;;;;4991101;28;20470;-67
2022/07/01 04:59:08;;;;;;;1.60;1.50;;;14.50;99.90;;;;;;4988606;28;20438;-66
2022/07/01 05:01:34;;;;;;;3.10;1.40;;;14.40;99.90;;;;;;4989579;28;20180;-67
2022/07/01 05:03:59;;;;;;;1.73;1.40;;;14.40;99.90;;;;;;4988281;28;20184;-67
2022/07/01 05:06:25;;;;;;;1.97;1.63;;;14.50;99.90;;;;;;4990431;28;20873;-67
2022/07/01 05:08:51;;;;;;;2.77;2.10;;;14.40;99.90;;;;;;4990630;28;20176;-67
2022/07/01 05:11:16;;;;;;;3.47;1.90;;;14.40;99.90;;;;;;4991449;28;20176;-66
2022/07/01 05:13:42;;;;;;;2.13;1.93;;;14.40;99.90;;;;;;4995665;28;20440;-66
2022/07/01 05:16:11;;;;;;;5.80;5.20;;;14.40;99.90;;;;;;4990666;28;20230;-67
2022/07/01 05:24:06;;;;;;;2.27;1.93;;;14.40;99.90;;;;;;4997737;28;20631;-65
2022/07/01 05:26:32;;;;;;;2.07;1.50;;;14.40;99.90;;;;;;4998657;28;20451;-66
2022/07/01 05:28:58;;;;;;;1.93;1.70;;;14.50;99.90;;;;;;5007822;28;20410;-65
2022/07/01 05:31:23;;;;;;;3.43;1.93;;;14.60;99.90;;;;;;4993682;28;20668;-66
2022/07/01 05:33:49;;;;;;;2.80;1.70;;;14.60;99.90;;;;;;4991107;28;20209;-65
2022/07/01 05:36:15;;;;;;;2.57;1.60;;;14.70;99.90;;;;;;5002875;28;20613;-66
2022/07/01 05:38:41;;;;;;;2.67;1.80;;;14.70;99.90;;;;;;4990559;28;20720;-66
2022/07/01 05:41:06;;;;;;;1.83;1.73;;;14.70;99.90;;;;;;4993482;28;20430;-67
2022/07/01 05:43:33;;;;;;;5.10;2.00;;;14.80;99.90;;;;;;4999122;28;20175;-66
2022/07/01 05:45:59;;;;;;;1.67;1.40;;;14.80;99.90;;;;;;5000220;28;20198;-67
2022/07/01 05:48:25;;;;;;;1.30;1.20;;;14.80;99.90;;;;;;5001458;28;20446;-67
2022/07/01 05:50:51;;;;;;;1.50;1.40;;;14.70;99.90;;;;;;4996792;28;20472;-67
2022/07/01 05:53:16;;;;;;;1.50;1.40;;;14.70;99.90;;;;;;4989367;28;20448;-66
2022/07/01 05:55:42;;;;;;;1.77;1.50;;;14.70;99.90;;;;;;4990114;28;20183;-66
2022/07/01 05:58:09;;;;;;;1.60;1.50;;;14.70;99.90;;;;;;4992815;28;20261;-65
2022/07/01 06:00:35;;;;;;;1.20;1.10;;;14.80;99.90;;;;;;4987773;28;20560;-66
2022/07/01 06:03:01;;;;;;;1.50;1.40;;;14.70;99.90;;;;;;4989809;28;20434;-66
2022/07/01 06:05:26;;;;;;;1.80;1.60;;;14.80;99.90;;;;;;4992347;28;20163;-65
2022/07/01 06:07:52;;;;;;;1.93;1.60;;;14.80;99.90;;;;;;4989969;28;20203;-66
2022/07/01 06:10:17;;;;;;;1.73;1.63;;;14.80;99.90;;;;;;4997812;28;20184;-66
2022/07/01 06:12:43;;;;;;;1.30;1.10;;;14.80;99.90;;;;;;4989368;28;20638;-65
2022/07/01 06:15:13;;;;;;;3.23;1.80;;;14.80;99.90;;;;;;4989125;28;20188;-65
2022/07/01 06:17:40;;;;;;;2.50;2.30;;;14.80;99.90;;;;;;4983954;28;20735;-71
2022/07/01 06:20:07;;;;;;;1.83;1.73;;;14.90;99.90;;;;;;4986382;28;20454;-72
2022/07/01 06:22:33;;;;;;;2.43;2.00;;;14.90;99.90;;;;;;4985281;28;20840;-71
2022/07/01 06:24:59;;;;;;;2.37;2.17;;;14.90;99.90;;;;;;4976147;28;20549;-71
2022/07/01 06:27:25;;;;;;;5.03;2.30;;;14.90;99.90;;;;;;4981722;28;20203;-72
2022/07/01 06:29:51;;;;;;;3.10;1.50;;;14.90;99.90;;;;;;4992165;28;20446;-71
2022/07/01 06:32:16;;;;;;;2.13;2.03;;;15.00;99.90;;;;;;4996241;28;20194;-71
2022/07/01 06:34:42;;;;;;;1.60;1.50;;;15.00;99.90;;;;;;4990423;28;20446;-71
2022/07/01 06:37:08;;;;;;;1.50;1.40;;;15.20;99.90;;;;;;4994582;28;20231;-70
2022/07/01 06:39:33;;;;;;;3.43;3.13;;;15.30;99.90;;;;;;4997389;28;20192;-70
2022/07/01 06:41:59;;;;;;;2.47;2.27;;;15.20;99.90;;;;;;4993092;28;20183;-70
2022/07/01 06:44:24;;;;;;;2.80;1.60;;;15.30;99.90;;;;;;4989177;28;20940;-71
2022/07/01 06:46:50;;;;;;;2.10;1.90;;;15.30;99.90;;;;;;4993038;28;20227;-71
2022/07/01 06:49:15;;;;;;;1.57;1.47;;;15.30;99.90;;;;;;4991559;28;20218;-71
2022/07/01 06:51:41;;;;;;;3.83;2.30;;;15.40;99.90;;;;;;4995820;28;20245;-70
2022/07/01 06:54:07;;;;;;;4.53;3.03;;;15.50;99.90;;;;;;4990981;28;20270;-71
2022/07/01 06:56:32;;;;;;;3.30;3.00;;;15.60;99.90;;;;;;4993405;28;20210;-70
2022/07/01 06:58:58;;;;;;;1.77;1.63;;;15.70;99.90;;;;;;4990097;28;20191;-71
2022/07/01 07:01:24;;;;;;;1.83;1.70;;;15.70;99.90;;;;;;4989721;28;20179;-71
2022/07/01 07:03:49;;;;;;;1.87;1.77;;;15.60;99.90;;;;;;4988137;28;20259;-71
2022/07/01 07:06:15;;;;;;;2.40;2.20;;;15.40;99.90;;;;;;4993580;28;20202;-70
2022/07/01 07:08:40;;;;;;;1.63;1.50;;;15.50;99.90;;;;;;4992205;28;20266;-71
2022/07/01 07:11:08;;;;;;;2.27;1.80;;;15.60;99.90;;;;;;4990196;28;20207;-71
2022/07/01 07:13:34;;;;;;;2.43;2.23;;;15.70;99.90;;;;;;4990993;28;20645;-70
2022/07/01 07:16:00;;;;;;;2.87;2.20;;;15.70;99.90;;;;;;4991484;28;20451;-70
2022/07/01 07:18:25;;;;;;;1.50;1.40;;;15.70;99.90;;;;;;4991410;28;20478;-71
2022/07/01 07:20:51;;;;;;;2.70;2.03;;;15.70;99.90;;;;;;4992449;28;20184;-69
2022/07/01 07:23:16;;;;;;;1.80;1.70;;;15.70;99.90;;;;;;4988780;28;20724;-69
2022/07/01 07:25:42;;;;;;;2.47;2.27;;;15.90;99.90;;;;;;4995262;28;20722;-71
2022/07/01 07:28:07;;;;;;;2.37;2.03;;;16.00;99.90;;;;;;4991443;28;20239;-71
2022/07/01 07:30:33;;;;;;;2.13;1.90;;;16.00;99.90;;;;;;4991982;28;20549;-71
2022/07/01 07:32:58;;;;;;;1.50;1.40;;;16.00;99.90;;;;;;4991978;28;20191;-70
2022/07/01 07:35:24;;;;;;;1.90;1.80;;;15.90;99.90;;;;;;4989009;28;20290;-71
2022/07/01 07:37:50;;;;;;;1.50;1.40;;;16.00;99.90;;;;;;4992465;28;20208;-70
2022/07/01 07:40:18;;;;;;;2.37;1.93;;;15.80;99.90;;;;;;4990026;28;20176;-71
2022/07/01 07:42:46;;;;;;;1.70;1.60;;;15.90;99.90;;;;;;4989342;28;20179;-71
2022/07/01 07:45:13;;;;;;;1.77;1.67;;;16.00;99.90;;;;;;4999527;28;20525;-71
2022/07/01 07:47:45;;;;;;;2.77;2.47;;;16.00;99.90;;;;;;4991435;28;20891;-71
2022/07/01 07:50:11;;;;;;;2.33;1.90;;;16.10;99.90;;;;;;4990131;28;20459;-71
2022/07/01 07:52:37;;;;;;;2.97;2.67;;;16.10;99.90;;;;;;4989701;28;20446;-70
2022/07/01 07:55:04;;;;;;;2.33;2.00;;;16.10;99.90;;;;;;4991887;28;20474;-71
2022/07/01 07:57:30;;;;;;;3.53;1.60;;;15.90;99.90;;;;;;4989642;28;20471;-71
2022/07/01 07:59:56;;;;;;;1.93;1.73;;;15.80;99.90;;;;;;4988296;28;21014;-70
2022/07/01 08:02:22;;;;;;;2.40;1.73;;;15.70;99.90;;;;;;4989605;28;20434;-71
2022/07/01 08:04:47;;;;;;;2.23;1.83;;;15.70;99.90;;;;;;4987395;28;20218;-70
2022/07/01 08:07:13;;;;;;;1.50;1.40;;;15.70;99.90;;;;;;4990135;28;20195;-71
2022/07/01 08:09:38;;;;;;;1.97;1.87;;;15.60;99.90;;;;;;4989043;28;20729;-72
2022/07/01 08:12:04;;;;;;;2.73;2.47;;;15.50;99.90;;;;;;4993052;28;20223;-70
2022/07/01 08:14:30;;;;;;;2.00;1.90;;;15.50;99.90;;;;;;4987115;28;20198;-70
2022/07/01 08:16:56;;;;;;;2.60;2.03;;;15.50;99.90;;;;;;4995541;28;20991;-71
2022/07/01 08:19:21;;;;;;;2.23;2.03;;;15.50;99.90;;;;;;4988957;28;20193;-71
2022/07/01 08:21:47;;;;;;;2.07;1.97;;;15.50;99.90;;;;;;4991675;28;20180;-70
2022/07/01 08:24:12;;;;;;;1.60;1.50;;;15.60;99.90;;;;;;4983717;28;20210;-71
2022/07/01 08:26:38;;;;;;;3.30;1.73;;;15.60;99.90;;;;;;4990173;28;20215;-71
2022/07/01 08:29:04;;;;;;;2.23;2.03;;;15.70;99.90;;;;;;4989936;28;20172;-71
2022/07/01 08:31:31;;;;;;;2.07;1.50;;;15.70;99.90;;;;;;4989161;28;20215;-71
2022/07/01 08:33:57;;;;;;;2.07;1.83;;;15.80;99.90;;;;;;4986290;28;20522;-71
2022/07/01 08:36:22;;;;;;;2.03;1.93;;;15.90;99.90;;;;;;4988428;28;20458;-70
2022/07/01 08:38:49;;;;;;;1.73;1.57;;;16.10;99.90;;;;;;4988496;28;20463;-71
2022/07/01 08:41:15;;;;;;;2.87;2.20;;;16.20;99.90;;;;;;4988366;28;20183;-72
2022/07/01 08:43:41;;;;;;;2.70;2.00;;;16.40;99.90;;;;;;4981953;28;20446;-71
2022/07/01 08:46:07;;;;;;;2.70;2.50;;;16.40;99.90;;;;;;4992432;28;20454;-71
2022/07/01 08:48:33;;;;;;;1.87;1.70;;;16.40;99.90;;;;;;4996287;28;20187;-71
2022/07/01 08:51:03;;;;;;;1.83;1.70;;;16.40;99.90;;;;;;4987487;28;20463;-71
2022/07/01 08:53:30;;;;;;;1.87;1.77;;;16.40;99.90;;;;;;4990340;28;20541;-69
2022/07/01 08:58:40;;;;;;;2.03;1.73;;;16.20;99.90;;;;;;4989157;28;20513;-70
2022/07/01 09:01:14;;;;;;;6.17;5.20;;;16.00;99.90;;;;;;4986894;28;20956;-69
2022/07/01 09:03:39;;;;;;;2.10;2.00;;;16.00;99.90;;;;;;4969043;28;20198;-71
2022/07/01 09:06:12;;;;;;;1.70;1.60;;;16.10;99.90;;;;;;4987652;28;20968;-70
2022/07/01 09:08:37;;;;;;;2.83;1.53;;;15.80;99.90;;;;;;4986538;28;20175;-70
2022/07/01 09:11:24;;;;;;;3.20;2.00;;;15.60;99.90;;;;;;4989125;28;20445;-71
2022/07/01 09:14:06;;;;;;;2.03;1.93;;;15.50;99.90;;;;;;4989380;28;20195;-70
2022/07/01 09:16:43;;;;;;;2.13;1.93;;;15.50;99.90;;;;;;4988101;28;20569;-71
2022/07/01 09:19:09;;;;;;;1.70;1.60;;;15.50;99.90;;;;;;4988133;28;20512;-71
2022/07/01 09:21:35;;;;;;;1.70;1.60;;;15.50;99.90;;;;;;4990199;28;20435;-70
2022/07/01 09:24:21;;;;;;;3.07;2.00;;;15.50;99.90;;;;;;4984692;28;20191;-70
2022/07/01 09:27:06;;;;;;;1.83;1.73;;;15.50;99.90;;;;;;4999131;28;20195;-70
2022/07/01 09:29:34;;;;;;;2.60;2.50;;;15.50;99.90;;;;;;4984923;28;20439;-70
2022/07/01 09:32:02;;;;;;;1.80;1.70;;;16.50;99.90;;;;;;4989398;28;21218;-70
2022/07/01 09:34:32;;;;;;;2.60;2.40;;;17.20;99.90;;;;;;4984711;28;20446;-70
2022/07/01 09:36:58;;;;;;;3.30;3.00;;;17.00;99.90;;;;;;4989334;28;20540;-71
2022/07/01 09:39:24;;;;;;;2.17;2.07;;;17.00;99.90;;;;;;4989775;28;20932;-70
2022/07/01 09:41:49;;;;;;;2.33;2.20;;;16.60;99.90;;;;;;4990091;28;20637;-70
2022/07/01 09:44:15;;;;;;;3.90;2.03;;;16.40;99.90;;;;;;4988181;28;20655;-70
2022/07/01 09:46:57;;;;;;;2.23;2.03;;;16.30;99.90;;;;;;4986672;28;20673;-70
2022/07/01 09:49:24;;;;;;;2.30;2.13;;;16.10;99.90;;;;;;4988754;28;20186;-69
2022/07/01 09:51:51;;;;;;;2.10;1.90;;;16.10;99.90;;;;;;4988679;28;20438;-70
2022/07/01 09:54:17;;;;;;;1.57;1.47;;;16.20;99.90;;;;;;4985126;28;20451;-69
2022/07/01 09:56:43;;;;;;;2.17;2.07;;;16.20;99.90;;;;;;4989143;28;20530;-70
2022/07/01 09:59:08;;;;;;;3.03;2.83;;;16.20;99.90;;;;;;4991127;28;20438;-69
2022/07/01 10:01:34;;;;;;;2.67;2.47;;;16.40;99.90;;;;;;4991895;28;20234;-70
2022/07/01 10:04:03;;;;;;;1.77;1.67;;;16.70;99.90;;;;;;4988229;28;20182;-70
2022/07/01 10:07:02;;;;;;;2.10;2.00;;;17.00;99.90;;;;;;4993266;28;20464;-70
2022/07/01 10:10:15;;;;;;;1.40;1.30;;;17.20;99.90;;;;;;4992685;28;20948;-70
2022/07/01 10:12:50;;;;;;;2.07;1.93;;;17.30;99.90;;;;;;4938212;29;20539;-70
2022/07/01 10:15:17;;;;;;;2.30;2.10;;;17.30;99.90;;;;;;4985121;28;21006;-71
2022/07/01 10:17:48;;;;;;;2.23;2.13;;;17.30;99.90;;;;;;4992460;28;20840;-70
2022/07/01 10:20:15;;;;;;;4.57;2.77;;;17.40;99.90;;;;;;4994001;28;20434;-71
2022/07/01 10:22:43;;;;;;;12.07;10.80;;;17.50;99.90;;;;;;4990537;28;20446;-71
2022/07/01 10:25:30;;;;;;;2.77;2.37;;;17.60;99.90;;;;;;4985633;28;20492;-71
2022/07/01 10:28:15;;;;;;;3.00;2.00;;;17.90;99.90;;;;;;4994083;28;20508;-71
2022/07/01 10:30:56;;;;;;;2.00;1.87;;;18.00;99.90;;;;;;4987743;28;20446;-69
2022/07/01 10:33:33;;;;;;;1.60;1.50;;;18.20;99.90;;;;;;4984020;28;20450;-68
2022/07/01 10:36:18;;;;;;;1.77;1.63;;;18.40;99.90;;;;;;4989557;28;20443;-68
2022/07/01 10:39:08;;;;;;;1.93;1.83;;;18.60;99.90;;;;;;4990723;28;20470;-73
2022/07/01 10:41:38;;;;;;;2.63;2.17;;;18.70;99.90;;;;;;4998442;28;20479;-72
2022/07/01 10:44:12;;;;;;;2.93;2.40;;;18.50;99.90;;;;;;4988335;28;20936;-72
2022/07/01 10:46:44;;;;;;;2.63;2.43;;;18.70;99.90;;;;;;4990342;28;20549;-71
2022/07/01 10:49:32;;;;;;;2.30;2.10;;;19.00;99.90;;;;;;4996858;28;20438;-71
2022/07/01 10:51:58;;;;;;;2.03;1.70;;;19.20;99.90;;;;;;4999782;28;20433;-72
2022/07/01 10:54:36;;;;;;;1.60;1.50;;;19.40;99.90;;;;;;4988501;28;20473;-72
2022/07/01 10:57:19;;;;;;;1.77;1.67;;;19.50;99.90;;;;;;4987386;28;20207;-72
2022/07/01 10:59:52;;;;;;;1.47;1.37;;;20.50;99.90;;;;;;4991113;28;20488;-71
2022/07/01 11:02:23;;;;;;;2.20;2.10;;;20.30;99.90;;;;;;4996533;28;20506;-72
2022/07/01 11:04:53;;;;;;;3.00;2.10;;;20.50;99.90;;;;;;4988549;28;21058;-69
2022/07/01 11:07:19;;;;;;;2.10;1.50;;;21.00;99.90;;;;;;4986443;28;20455;-71
2022/07/01 11:09:44;;;;;;;1.33;1.27;;;21.80;99.90;;;;;;4997896;28;20446;-71
2022/07/01 11:12:10;;;;;;;5.73;1.30;;;22.50;99.90;;;;;;4998879;28;20612;-71
2022/07/01 11:14:40;;;;;;;1.87;1.77;;;22.70;99.90;;;;;;4989154;28;20187;-70
2022/07/01 11:17:08;;;;;;;1.30;1.10;;;22.70;99.90;;;;;;5000212;28;20195;-70
2022/07/01 11:19:34;;;;;;;1.80;1.60;;;22.30;99.90;;;;;;4988658;28;20430;-71
2022/07/01 11:22:00;;;;;;;1.83;1.17;;;22.20;99.90;;;;;;4988593;28;20814;-71
2022/07/01 11:24:26;;;;;;;1.60;1.50;;;21.50;99.90;;;;;;4979375;28;20434;-69
2022/07/01 11:26:59;;;;;;;2.00;1.90;;;21.10;99.90;;;;;;4986943;28;20200;-71
2022/07/01 11:29:26;;;;;;;1.90;1.70;;;21.30;99.90;;;;;;4982694;28;20437;-71
2022/07/01 11:31:53;;;;;;;2.30;2.00;;;21.50;99.90;;;;;;4997379;28;20497;-71
2022/07/01 11:34:19;;;;;;;1.73;1.60;;;21.60;99.90;;;;;;4979493;28;20906;-72
2022/07/01 11:39:34;;;;;;;2.10;1.93;;;21.00;99.90;;;;;;4987490;28;20452;-70
2022/07/01 11:42:04;;;;;;;1.83;1.63;;;20.40;99.90;;;;;;4994108;28;20438;-69
2022/07/01 11:44:43;;;;;;;2.00;1.90;;;20.00;99.90;;;;;;4981086;28;21037;-71
2022/07/01 11:47:22;;;;;;;2.30;2.10;;;20.00;99.90;;;;;;4987880;28;22383;-71
2022/07/01 11:49:48;;;;;;;3.00;1.70;;;19.90;99.90;;;;;;4986197;28;20960;-71
2022/07/01 11:52:17;;;;;;;3.57;1.90;;;19.90;99.90;;;;;;4992018;28;20461;-72
2022/07/01 11:54:48;;;;;;;3.33;1.90;;;20.30;99.90;;;;;;4979354;28;20542;-70
2022/07/01 11:57:19;;;;;;;1.77;1.67;;;20.80;99.90;;;;;;4989456;28;20485;-72
2022/07/01 11:59:47;;;;;;;2.37;2.17;;;21.40;99.90;;;;;;4988103;28;20454;-71
2022/07/01 12:02:15;;;;;;;1.80;1.70;;;21.40;99.90;;;;;;4989233;28;20450;-71
2022/07/01 12:04:41;;;;;;;3.23;1.70;;;21.20;99.90;;;;;;4986162;28;20442;-71
2022/07/01 12:07:08;;;;;;;1.53;1.43;;;21.40;99.90;;;;;;4987444;28;20477;-70
2022/07/01 12:09:34;;;;;;;2.47;1.87;;;22.00;99.90;;;;;;4986074;28;20454;-71
2022/07/01 12:12:00;;;;;;;3.20;1.80;;;23.10;99.90;;;;;;4989541;28;20446;-71
2022/07/01 12:14:32;;;;;;;1.67;1.57;;;23.80;99.90;;;;;;4980579;28;20971;-68
2022/07/01 12:17:01;;;;;;;1.60;1.50;;;24.30;99.90;;;;;;4987906;28;20211;-71
2022/07/01 12:19:35;;;;;;;1.60;1.50;;;24.50;99.90;;;;;;4987817;28;20446;-71
2022/07/01 12:22:00;;;;;;;1.70;1.60;;;24.60;99.90;;;;;;4984231;28;21050;-71
2022/07/01 12:24:26;;;;;;;1.90;1.60;;;24.00;99.90;;;;;;4976482;28;20506;-71
2022/07/01 12:26:58;;;;;;;2.13;1.50;;;23.60;99.90;;;;;;4989858;28;20257;-70
2022/07/01 12:29:26;;;;;;;2.20;2.10;;;22.20;99.90;;;;;;4986939;28;20538;-71
2022/07/01 12:31:55;;;;;;;2.40;2.07;;;21.80;99.90;;;;;;4990376;28;20816;-71
2022/07/01 12:34:21;;;;;;;1.93;1.80;;;21.70;99.90;;;;;;4985864;28;20440;-71
2022/07/01 12:36:50;;;;;;;2.40;2.20;;;21.20;99.90;;;;;;4988846;28;20493;-71
2022/07/01 12:39:16;;;;;;;2.57;1.53;;;20.80;99.90;;;;;;4991824;28;20194;-70
2022/07/01 12:41:50;;;;;;;1.93;1.73;;;20.40;99.90;;;;;;4994153;28;20442;-70
2022/07/01 12:44:23;;;;;;;2.50;2.30;;;19.90;99.90;;;;;;4980666;28;20270;-70
2022/07/01 12:46:49;;;;;;;3.57;2.07;;;19.80;99.90;;;;;;4985994;28;20505;-71
2022/07/01 12:49:27;;;;;;;2.00;1.90;;;19.60;99.90;;;;;;4988349;28;20477;-71
2022/07/01 12:51:53;;;;;;;1.70;1.60;;;19.30;99.90;;;;;;4992096;28;20262;-70
2022/07/01 12:54:34;;;;;;;1.47;1.37;;;19.30;99.90;;;;;;4980112;28;20442;-71
2022/07/01 12:57:00;;;;;;;1.90;1.80;;;19.80;99.90;;;;;;4985734;28;20926;-72
2022/07/01 12:59:26;;;;;;;1.63;1.53;;;20.40;99.90;;;;;;4990387;28;20469;-72
2022/07/01 13:01:53;;;;;;;2.03;1.93;;;21.00;99.90;;;;;;4990878;28;20776;-72
2022/07/01 13:04:26;;;;;;;2.53;1.67;;;21.30;99.90;;;;;;4979570;28;20446;-71
2022/07/01 13:06:52;;;;;;;1.60;1.50;;;21.50;99.90;;;;;;4985160;28;20585;-70